Time;durP1;ratioP1;P1;durP2;ratioP2;P2;SDS_P1;SDS_P2;PMS_P1;PMS_P2;Temp;Humidity;BMP_temperature;BMP_pressure;BME280_temperature;BME280_humidity;BME280_pressure;Samples;Min_cycle;Max_cycle;Signal;HPM_P1;HPM_P2
2021/04/30 00:00:21;;;;;;;38.67;26.73;;;8.10;97.60;;;;;;5136206;27;20144;-70
2021/04/30 00:02:47;;;;;;;38.45;27.45;;;8.10;97.70;;;;;;5135662;27;20035;-70
2021/04/30 00:05:13;;;;;;;35.10;25.27;;;8.10;97.60;;;;;;5135157;27;20038;-70
2021/04/30 00:07:38;;;;;;;37.47;28.13;;;8.00;97.60;;;;;;5135402;27;20039;-70
2021/04/30 00:10:05;;;;;;;35.78;25.02;;;8.00;97.70;;;;;;5135858;27;20066;-69
2021/04/30 00:12:30;;;;;;;36.20;27.38;;;8.00;97.80;;;;;;5135912;27;20071;-70
2021/04/30 00:14:57;;;;;;;37.45;27.02;;;8.00;97.60;;;;;;5134287;27;20047;-70
2021/04/30 00:17:22;;;;;;;37.67;27.05;;;8.00;97.70;;;;;;5135321;27;20039;-69
2021/04/30 00:19:48;;;;;;;37.85;28.00;;;8.00;97.60;;;;;;5135353;27;20053;-70
2021/04/30 00:22:14;;;;;;;39.10;27.83;;;7.90;97.70;;;;;;5135521;27;20402;-70
2021/04/30 00:24:39;;;;;;;39.25;26.00;;;8.00;97.60;;;;;;5134831;27;20054;-70
2021/04/30 00:27:06;;;;;;;37.95;27.05;;;8.00;97.60;;;;;;5135220;27;20493;-70
2021/04/30 00:29:31;;;;;;;40.38;27.55;;;7.90;97.60;;;;;;5135080;27;20110;-70
2021/04/30 00:31:57;;;;;;;38.25;26.70;;;7.80;97.60;;;;;;5135000;27;20066;-70
2021/04/30 00:34:23;;;;;;;36.95;26.88;;;7.80;97.70;;;;;;5134701;27;20454;-67
2021/04/30 00:36:49;;;;;;;37.83;28.00;;;7.80;97.70;;;;;;5134782;27;20114;-67
2021/04/30 00:39:15;;;;;;;38.15;25.38;;;7.80;97.80;;;;;;5135509;27;20114;-67
2021/04/30 00:41:42;;;;;;;40.25;28.80;;;7.80;97.70;;;;;;5134833;27;20038;-67
2021/04/30 00:44:08;;;;;;;35.22;26.42;;;7.80;97.70;;;;;;5134670;27;20563;-67
2021/04/30 00:46:34;;;;;;;35.30;26.02;;;7.70;97.60;;;;;;5134345;27;20046;-67
2021/04/30 00:49:00;;;;;;;33.63;25.42;;;7.70;97.60;;;;;;5134692;27;20035;-67
2021/04/30 00:51:26;;;;;;;38.55;26.33;;;7.70;97.70;;;;;;5134740;27;20031;-67
2021/04/30 00:53:52;;;;;;;36.65;26.52;;;7.70;97.70;;;;;;5134503;27;20039;-67
2021/04/30 00:56:20;;;;;;;37.97;26.02;;;7.70;97.80;;;;;;5134363;27;20148;-67
2021/04/30 00:58:45;;;;;;;36.33;26.67;;;7.70;97.80;;;;;;5133988;27;20114;-67
2021/04/30 01:01:12;;;;;;;37.78;26.73;;;7.70;97.70;;;;;;5134532;27;20058;-67
2021/04/30 01:03:38;;;;;;;38.97;26.08;;;7.70;97.70;;;;;;5134737;27;20050;-67
2021/04/30 01:06:04;;;;;;;36.53;27.15;;;7.70;97.80;;;;;;5134162;27;20037;-67
2021/04/30 01:08:30;;;;;;;41.70;27.75;;;7.60;97.70;;;;;;5134307;27;20482;-67
2021/04/30 01:10:55;;;;;;;37.00;26.23;;;7.70;97.80;;;;;;5135010;27;20042;-67
2021/04/30 01:13:21;;;;;;;40.17;27.35;;;7.70;97.80;;;;;;5134489;27;20042;-67
2021/04/30 01:15:47;;;;;;;33.60;25.70;;;7.70;97.80;;;;;;5134033;27;20044;-67
2021/04/30 01:18:13;;;;;;;38.42;27.88;;;7.70;97.70;;;;;;5134653;27;20038;-67
2021/04/30 01:20:38;;;;;;;40.40;26.75;;;7.70;97.80;;;;;;5134653;27;20035;-67
2021/04/30 01:23:04;;;;;;;35.67;25.90;;;7.70;97.70;;;;;;5134256;27;20092;-67
2021/04/30 01:25:35;;;;;;;37.20;27.70;;;7.70;97.70;;;;;;5134960;27;20039;-67
2021/04/30 01:28:02;;;;;;;37.33;27.00;;;7.70;97.80;;;;;;5138556;27;20031;-67
2021/04/30 01:30:30;;;;;;;37.63;26.08;;;7.70;97.80;;;;;;5138695;27;20035;-67
2021/04/30 01:32:57;;;;;;;37.40;24.98;;;7.70;97.70;;;;;;5138846;27;20039;-67
2021/04/30 01:35:32;;;;;;;35.33;26.65;;;7.70;97.70;;;;;;5138270;27;20039;-69
2021/04/30 01:38:00;;;;;;;35.95;25.48;;;7.70;97.60;;;;;;5137966;27;20043;-68
2021/04/30 01:40:29;;;;;;;37.00;26.55;;;7.70;97.70;;;;;;5139056;27;20466;-68
2021/04/30 01:43:15;;;;;;;37.75;25.63;;;7.70;97.80;;;;;;5138300;27;20043;-68
2021/04/30 01:45:54;;;;;;;40.15;27.52;;;7.80;97.70;;;;;;5137975;27;20035;-68
2021/04/30 01:48:28;;;;;;;38.33;27.75;;;7.70;97.70;;;;;;5138497;27;20039;-68
2021/04/30 01:50:56;;;;;;;39.03;27.15;;;7.70;97.70;;;;;;5138206;27;20072;-68
2021/04/30 01:53:24;;;;;;;34.75;26.83;;;7.70;97.70;;;;;;5138604;27;20079;-67
2021/04/30 01:55:51;;;;;;;39.17;27.05;;;7.70;97.60;;;;;;5137897;27;20503;-67
2021/04/30 01:58:18;;;;;;;35.17;26.20;;;7.70;97.60;;;;;;5138343;27;20227;-68
2021/04/30 02:00:44;;;;;;;35.72;25.40;;;7.70;97.60;;;;;;5138118;27;20035;-68
2021/04/30 02:03:11;;;;;;;34.15;25.17;;;7.70;97.60;;;;;;5138042;27;20039;-68
2021/04/30 02:05:37;;;;;;;39.63;27.92;;;7.60;97.60;;;;;;5137660;27;20040;-67
2021/04/30 02:08:11;;;;;;;37.80;25.35;;;7.60;97.60;;;;;;5137680;27;20410;-68
2021/04/30 02:10:37;;;;;;;;;;;7.70;97.60;;;;;;5138136;27;20110;-67
2021/04/30 02:13:03;;;;;;;42.83;25.85;;;7.60;97.70;;;;;;5137695;27;19915;-67
2021/04/30 02:15:32;;;;;;;38.40;26.50;;;7.60;97.70;;;;;;5137393;27;20037;-67
2021/04/30 02:17:58;;;;;;;34.30;25.60;;;7.60;97.60;;;;;;5137611;27;20050;-67
2021/04/30 02:20:24;;;;;;;35.20;26.73;;;7.60;97.60;;;;;;5137738;27;20035;-67
2021/04/30 02:22:51;;;;;;;37.60;26.00;;;7.60;97.50;;;;;;5137761;27;20076;-67
2021/04/30 02:25:18;;;;;;;34.60;26.27;;;7.70;97.60;;;;;;5137160;27;20043;-68
2021/04/30 02:27:45;;;;;;;38.08;26.13;;;7.70;97.60;;;;;;5137931;27;20205;-68
2021/04/30 02:30:15;;;;;;;36.97;25.35;;;7.70;97.60;;;;;;5136815;27;20043;-67
2021/04/30 02:32:41;;;;;;;36.33;26.35;;;7.70;97.60;;;;;;5137712;27;20548;-68
2021/04/30 02:35:17;;;;;;;39.60;27.10;;;7.70;97.60;;;;;;5137222;27;20197;-67
2021/04/30 02:37:44;;;;;;;42.67;27.35;;;7.70;97.60;;;;;;5136021;27;20035;-68
2021/04/30 02:40:12;;;;;;;35.22;24.75;;;7.70;97.70;;;;;;5137289;27;20031;-67
2021/04/30 02:42:38;;;;;;;36.72;25.35;;;7.70;97.70;;;;;;5137275;27;20047;-67
2021/04/30 02:45:06;;;;;;;34.72;25.92;;;7.80;97.70;;;;;;5136912;27;20126;-68
2021/04/30 02:47:35;;;;;;;40.28;29.02;;;7.80;97.80;;;;;;5137123;27;20047;-68
2021/04/30 02:50:03;;;;;;;36.00;26.95;;;7.80;97.90;;;;;;5137347;27;20043;-68
2021/04/30 02:52:29;;;;;;;37.63;27.27;;;7.80;97.90;;;;;;5137286;27;20073;-67
2021/04/30 02:54:55;;;;;;;39.65;27.85;;;7.80;97.90;;;;;;5136949;27;20429;-68
2021/04/30 02:57:21;;;;;;;38.13;27.25;;;7.80;97.90;;;;;;5136841;27;20032;-67
2021/04/30 02:59:47;;;;;;;40.95;27.15;;;7.70;97.80;;;;;;5136883;27;20428;-67
2021/04/30 03:02:14;;;;;;;40.28;26.92;;;7.70;97.80;;;;;;5137322;27;20110;-67
2021/04/30 03:04:43;;;;;;;39.78;26.35;;;7.70;97.80;;;;;;5136738;27;20043;-68
2021/04/30 03:07:09;;;;;;;41.00;27.25;;;7.70;97.80;;;;;;5136601;27;20123;-68
2021/04/30 03:09:35;;;;;;;38.20;26.55;;;7.70;97.90;;;;;;5137291;27;20076;-67
2021/04/30 03:12:01;;;;;;;33.55;24.92;;;7.80;97.80;;;;;;5136367;27;20495;-68
2021/04/30 03:14:27;;;;;;;36.25;25.67;;;7.80;97.80;;;;;;5136390;27;20116;-68
2021/04/30 03:16:52;;;;;;;35.45;25.17;;;7.80;97.90;;;;;;5136786;27;20039;-67
2021/04/30 03:19:19;;;;;;;35.03;23.58;;;7.80;97.80;;;;;;5136599;27;20039;-67
2021/04/30 03:21:45;;;;;;;35.60;23.92;;;7.80;97.80;;;;;;5136374;27;20039;-67
2021/04/30 03:24:10;;;;;;;38.15;24.63;;;7.80;97.70;;;;;;5137037;27;20039;-67
2021/04/30 03:26:36;;;;;;;30.52;21.75;;;7.80;97.70;;;;;;5135986;27;20046;-68
2021/04/30 03:29:03;;;;;;;37.67;23.92;;;7.80;97.60;;;;;;5136412;27;20134;-68
2021/04/30 03:31:30;;;;;;;31.65;22.95;;;7.90;97.60;;;;;;5136496;27;20054;-67
2021/04/30 03:33:56;;;;;;;36.58;23.70;;;7.80;97.60;;;;;;5136230;27;20039;-67
2021/04/30 03:36:22;;;;;;;34.17;22.40;;;7.80;97.60;;;;;;5135725;27;20543;-68
2021/04/30 03:38:49;;;;;;;35.38;23.45;;;7.80;97.60;;;;;;5136587;27;20384;-67
2021/04/30 03:41:16;;;;;;;38.05;23.77;;;7.80;97.60;;;;;;5135897;27;20398;-68
2021/04/30 03:43:42;;;;;;;34.70;21.80;;;7.80;97.60;;;;;;5135931;27;20039;-68
2021/04/30 03:46:08;;;;;;;37.53;24.15;;;7.70;97.60;;;;;;5135944;27;20112;-67
2021/04/30 03:48:34;;;;;;;34.22;23.80;;;7.70;97.70;;;;;;5136132;27;20064;-68
2021/04/30 03:51:00;;;;;;;36.90;23.20;;;7.70;97.70;;;;;;5135952;27;20483;-67
2021/04/30 03:53:26;;;;;;;35.25;23.75;;;7.70;97.70;;;;;;5135881;27;20035;-68
2021/04/30 03:55:52;;;;;;;35.72;24.80;;;7.70;97.90;;;;;;5134219;27;20070;-67
2021/04/30 03:58:18;;;;;;;35.53;23.45;;;7.70;97.90;;;;;;5135775;27;20111;-67
2021/04/30 04:00:44;;;;;;;32.22;22.98;;;7.80;98.00;;;;;;5135950;27;20035;-67
2021/04/30 04:03:10;;;;;;;33.65;22.85;;;7.70;97.90;;;;;;5135858;27;20035;-67
2021/04/30 04:05:36;;;;;;;34.15;23.83;;;7.70;97.90;;;;;;5135240;27;20122;-68
2021/04/30 04:08:02;;;;;;;35.70;22.15;;;7.70;97.90;;;;;;5135275;27;20055;-68
2021/04/30 04:10:28;;;;;;;39.08;22.73;;;7.70;98.00;;;;;;5135278;27;20039;-67
2021/04/30 04:12:53;;;;;;;38.65;23.63;;;7.70;97.90;;;;;;5135982;27;20039;-68
2021/04/30 04:15:19;;;;;;;37.40;22.70;;;7.70;98.00;;;;;;5135014;27;20074;-67
2021/04/30 04:17:45;;;;;;;33.10;21.52;;;7.60;98.00;;;;;;5135500;27;20043;-67
2021/04/30 04:20:11;;;;;;;43.40;23.67;;;7.60;98.00;;;;;;5135307;27;20039;-67
2021/04/30 04:22:38;;;;;;;37.28;21.80;;;7.70;98.00;;;;;;5135762;27;20070;-67
2021/04/30 04:25:05;;;;;;;35.88;22.23;;;7.70;98.00;;;;;;5135134;27;20035;-68
2021/04/30 04:27:30;;;;;;;34.90;22.80;;;7.70;98.10;;;;;;5135292;27;20473;-70
2021/04/30 04:29:56;;;;;;;37.45;23.13;;;7.70;98.00;;;;;;5135844;27;20035;-69
2021/04/30 04:32:22;;;;;;;36.90;22.83;;;7.70;98.00;;;;;;5135511;27;20139;-68
2021/04/30 04:34:47;;;;;;;30.13;21.10;;;7.70;97.90;;;;;;5134973;27;20043;-68
2021/04/30 04:37:13;;;;;;;33.95;21.40;;;7.80;97.90;;;;;;5135006;27;20037;-67
2021/04/30 04:39:39;;;;;;;36.47;21.80;;;7.80;97.80;;;;;;5134827;27;20080;-68
2021/04/30 04:42:06;;;;;;;37.50;23.13;;;7.80;97.80;;;;;;5135166;27;20035;-68
2021/04/30 04:44:33;;;;;;;33.15;22.23;;;7.80;97.80;;;;;;5134933;27;20032;-68
2021/04/30 04:46:59;;;;;;;35.92;21.73;;;7.90;97.80;;;;;;5135151;27;20042;-68
2021/04/30 04:49:24;;;;;;;36.88;23.27;;;7.90;97.80;;;;;;5134929;27;20107;-68
2021/04/30 04:51:50;;;;;;;32.05;20.70;;;7.90;97.80;;;;;;5135261;27;20483;-67
2021/04/30 04:54:16;;;;;;;32.60;22.17;;;7.90;97.80;;;;;;5134750;27;20475;-67
2021/04/30 04:56:42;;;;;;;32.88;22.50;;;8.00;97.80;;;;;;5134083;27;20114;-67
2021/04/30 04:59:08;;;;;;;39.83;21.30;;;8.00;97.70;;;;;;5134655;27;20071;-67
2021/04/30 05:01:33;;;;;;;32.80;20.55;;;8.00;97.70;;;;;;5134102;27;20035;-67
2021/04/30 05:04:00;;;;;;;32.70;21.08;;;8.10;97.70;;;;;;5135147;27;20046;-67
2021/04/30 05:06:26;;;;;;;40.28;23.15;;;8.20;97.60;;;;;;5134022;27;20038;-68
2021/04/30 05:08:51;;;;;;;38.47;23.38;;;8.20;97.70;;;;;;5133191;27;20035;-67
2021/04/30 05:11:17;;;;;;;33.10;20.63;;;8.20;97.70;;;;;;5134442;27;20478;-67
2021/04/30 05:13:43;;;;;;;36.28;22.35;;;8.20;97.70;;;;;;5134927;27;20039;-67
2021/04/30 05:16:10;;;;;;;42.45;22.13;;;8.20;97.70;;;;;;5133837;27;20041;-67
2021/04/30 05:18:36;;;;;;;34.15;20.85;;;8.20;97.80;;;;;;5134872;27;20063;-67
2021/04/30 05:21:02;;;;;;;39.00;22.40;;;8.20;97.80;;;;;;5134407;27;20047;-67
2021/04/30 05:23:28;;;;;;;31.33;21.30;;;8.20;97.90;;;;;;5134288;27;20465;-67
2021/04/30 05:25:55;;;;;;;41.97;21.20;;;8.30;97.90;;;;;;5134295;27;20028;-68
2021/04/30 05:28:20;;;;;;;37.65;20.23;;;8.30;97.80;;;;;;5134783;27;20039;-67
2021/04/30 05:30:47;;;;;;;36.47;20.30;;;8.30;97.80;;;;;;5134501;27;20031;-67
2021/04/30 05:33:14;;;;;;;34.53;20.17;;;8.40;97.70;;;;;;5133970;27;20436;-71
2021/04/30 05:35:39;;;;;;;36.50;19.70;;;8.40;97.60;;;;;;5132644;27;20383;-71
2021/04/30 05:38:05;;;;;;;35.67;24.00;;;8.40;97.60;;;;;;5131899;27;20050;-71
2021/04/30 05:40:33;;;;;;;36.60;22.20;;;8.50;98.00;;;;;;5132051;27;20035;-71
2021/04/30 05:42:59;;;;;;;34.25;22.27;;;8.50;97.90;;;;;;5131992;27;20119;-71
2021/04/30 05:45:25;;;;;;;41.85;22.90;;;8.50;97.90;;;;;;5131652;27;20650;-71
2021/04/30 05:47:51;;;;;;;37.20;22.60;;;8.60;98.00;;;;;;5131984;27;20043;-71
2021/04/30 05:50:17;;;;;;;44.22;21.20;;;8.60;97.90;;;;;;5132349;27;20371;-71
2021/04/30 05:52:43;;;;;;;38.17;22.05;;;8.60;97.90;;;;;;5134250;27;20062;-71
2021/04/30 05:55:09;;;;;;;30.80;19.95;;;8.70;98.10;;;;;;5133818;27;20073;-71
2021/04/30 05:57:35;;;;;;;38.65;22.77;;;8.70;98.00;;;;;;5134199;28;20527;-71
2021/04/30 06:00:01;;;;;;;37.40;20.98;;;8.70;97.90;;;;;;5134121;27;20035;-71
2021/04/30 06:02:27;;;;;;;31.02;19.17;;;8.70;97.90;;;;;;5133871;27;20394;-71
2021/04/30 06:04:53;;;;;;;31.77;19.20;;;8.80;97.80;;;;;;5133678;27;20027;-71
2021/04/30 06:07:19;;;;;;;38.92;20.98;;;8.80;97.70;;;;;;5133934;27;20039;-71
2021/04/30 06:09:45;;;;;;;36.92;20.38;;;8.80;97.60;;;;;;5133906;27;20042;-71
2021/04/30 06:12:10;;;;;;;37.60;21.85;;;8.90;97.60;;;;;;5136223;27;20111;-71
2021/04/30 06:14:36;;;;;;;32.67;18.90;;;9.00;97.50;;;;;;5137547;27;20039;-71
2021/04/30 06:17:03;;;;;;;36.33;19.83;;;9.00;97.50;;;;;;5138280;27;20035;-71
2021/04/30 06:19:30;;;;;;;32.58;18.95;;;9.00;97.60;;;;;;5138469;27;20425;-71
2021/04/30 06:21:56;;;;;;;39.95;21.65;;;9.00;97.60;;;;;;5137643;27;20043;-71
2021/04/30 06:24:23;;;;;;;34.92;20.75;;;8.90;97.60;;;;;;5137217;27;20403;-73
2021/04/30 06:26:49;;;;;;;40.03;19.88;;;8.90;97.70;;;;;;5137191;27;20095;-71
2021/04/30 06:29:15;;;;;;;36.83;20.73;;;8.90;97.80;;;;;;5137398;27;20035;-71
2021/04/30 06:31:41;;;;;;;37.42;19.95;;;8.90;97.90;;;;;;5137922;27;20408;-71
2021/04/30 06:34:07;;;;;;;33.85;19.77;;;8.90;98.00;;;;;;5137068;27;20479;-71
2021/04/30 06:36:34;;;;;;;37.47;19.92;;;8.90;97.90;;;;;;5136750;27;20039;-71
2021/04/30 06:39:00;;;;;;;36.40;19.42;;;8.80;97.70;;;;;;5137249;27;20049;-71
2021/04/30 06:41:26;;;;;;;33.90;17.58;;;8.90;97.70;;;;;;5137622;27;20039;-71
2021/04/30 06:43:53;;;;;;;34.42;18.70;;;9.00;97.70;;;;;;5136979;27;20483;-71
2021/04/30 06:46:19;;;;;;;37.72;20.02;;;8.90;97.60;;;;;;5137318;27;20035;-71
2021/04/30 06:48:47;;;;;;;32.60;19.77;;;9.00;97.70;;;;;;5137631;27;20467;-71
2021/04/30 06:51:13;;;;;;;33.90;17.92;;;8.90;97.70;;;;;;5137500;27;20063;-71
2021/04/30 06:53:39;;;;;;;36.20;20.65;;;9.00;97.80;;;;;;5137093;27;20519;-71
2021/04/30 06:56:04;;;;;;;35.03;18.90;;;9.10;97.70;;;;;;5136562;27;20114;-71
2021/04/30 06:58:30;;;;;;;38.50;20.23;;;9.20;97.80;;;;;;5137523;27;20036;-71
2021/04/30 07:00:56;;;;;;;34.35;18.63;;;9.20;97.70;;;;;;5136880;27;20039;-71
2021/04/30 07:03:21;;;;;;;43.08;19.23;;;9.30;97.80;;;;;;5137502;27;20473;-71
2021/04/30 07:05:47;;;;;;;37.95;19.92;;;9.20;97.70;;;;;;5136371;27;20039;-71
2021/04/30 07:08:13;;;;;;;38.00;20.50;;;9.30;97.90;;;;;;5136583;27;20031;-71
2021/04/30 07:10:39;;;;;;;37.25;19.75;;;9.30;98.00;;;;;;5136747;27;20070;-71
2021/04/30 07:13:12;;;;;;;38.90;19.10;;;9.40;97.80;;;;;;5137194;27;20084;-71
2021/04/30 07:15:38;;;;;;;36.60;19.30;;;9.40;97.70;;;;;;5136559;27;20531;-71
2021/04/30 07:18:04;;;;;;;41.22;21.08;;;9.40;97.80;;;;;;5135333;27;20091;-71
2021/04/30 07:20:31;;;;;;;37.72;19.90;;;9.50;98.00;;;;;;5136439;27;20082;-72
2021/04/30 07:22:58;;;;;;;36.58;21.08;;;9.50;97.70;;;;;;5134575;27;20050;-71
2021/04/30 07:25:23;;;;;;;37.78;20.63;;;9.50;97.50;;;;;;5136354;27;20096;-71
2021/04/30 07:27:49;;;;;;;34.65;18.52;;;9.60;97.50;;;;;;5136207;27;20035;-71
2021/04/30 07:30:15;;;;;;;37.15;19.25;;;9.70;97.40;;;;;;5136667;27;20070;-71
2021/04/30 07:32:42;;;;;;;39.17;19.45;;;9.70;97.20;;;;;;5136160;27;20151;-71
2021/04/30 07:35:08;;;;;;;35.67;19.08;;;9.80;97.30;;;;;;5135754;27;20050;-71
2021/04/30 07:37:34;;;;;;;33.53;17.00;;;9.90;97.10;;;;;;5136598;27;20035;-71
2021/04/30 07:40:00;;;;;;;28.40;17.00;;;9.90;96.70;;;;;;5135346;27;20455;-71
2021/04/30 07:42:26;;;;;;;27.48;16.80;;;9.90;96.50;;;;;;5135957;27;20031;-71
2021/04/30 07:44:52;;;;;;;23.55;15.38;;;9.70;96.10;;;;;;5134778;27;20079;-72
2021/04/30 07:47:17;;;;;;;30.35;15.23;;;9.80;96.00;;;;;;5135944;27;20046;-71
2021/04/30 07:49:43;;;;;;;25.38;14.32;;;9.60;95.60;;;;;;5135020;27;20028;-71
2021/04/30 07:52:09;;;;;;;27.55;15.30;;;9.50;95.30;;;;;;5135738;27;20038;-72
2021/04/30 07:54:35;;;;;;;26.35;13.65;;;9.60;95.30;;;;;;5135424;27;20505;-72
2021/04/30 07:57:02;;;;;;;24.65;14.23;;;9.50;95.00;;;;;;5135588;27;20035;-72
2021/04/30 07:59:29;;;;;;;22.15;14.85;;;9.50;95.10;;;;;;5135785;27;20188;-72
2021/04/30 08:01:55;;;;;;;24.42;13.90;;;9.40;94.60;;;;;;5135654;27;20058;-72
2021/04/30 08:04:20;;;;;;;26.92;14.10;;;9.40;94.90;;;;;;5135842;27;20470;-72
2021/04/30 08:06:46;;;;;;;25.83;14.60;;;9.50;95.00;;;;;;5135299;27;20424;-72
2021/04/30 08:09:12;;;;;;;22.23;14.93;;;9.50;95.10;;;;;;5135433;27;20041;-71
2021/04/30 08:11:37;;;;;;;28.50;14.82;;;9.50;95.20;;;;;;5136144;27;20043;-71
2021/04/30 08:14:07;;;;;;;31.75;15.77;;;9.60;95.20;;;;;;5134676;27;20055;-72
2021/04/30 08:16:36;;;;;;;26.65;14.63;;;9.60;95.30;;;;;;5135137;27;20039;-72
2021/04/30 08:19:03;;;;;;;25.52;13.90;;;9.60;95.20;;;;;;5135297;27;20520;-71
2021/04/30 08:21:29;;;;;;;27.17;14.05;;;9.50;95.00;;;;;;5135706;27;20043;-71
2021/04/30 08:23:56;;;;;;;24.88;14.70;;;9.60;95.10;;;;;;5135396;27;20039;-71
2021/04/30 08:26:22;;;;;;;27.88;14.52;;;9.60;95.10;;;;;;5135121;27;20471;-71
2021/04/30 08:28:49;;;;;;;29.08;15.15;;;9.50;95.00;;;;;;5135816;27;20043;-72
2021/04/30 08:31:15;;;;;;;24.10;13.98;;;9.50;95.10;;;;;;5135018;27;20399;-71
2021/04/30 08:33:40;;;;;;;26.80;14.85;;;9.50;95.10;;;;;;5135278;27;20032;-71
2021/04/30 08:36:06;;;;;;;25.17;14.75;;;9.50;95.20;;;;;;5134231;27;20499;-71
2021/04/30 08:38:32;;;;;;;25.00;13.60;;;9.50;95.60;;;;;;5134918;27;20035;-70
2021/04/30 08:40:58;;;;;;;25.23;14.63;;;9.50;95.50;;;;;;5135148;27;20039;-71
2021/04/30 08:43:24;;;;;;;26.73;16.20;;;9.60;95.60;;;;;;5135229;27;20439;-71
2021/04/30 08:45:54;;;;;;;27.27;15.75;;;9.60;95.60;;;;;;5134358;27;20031;-71
2021/04/30 08:48:20;;;;;;;28.48;16.27;;;9.50;95.60;;;;;;5135174;27;20039;-71
2021/04/30 08:50:47;;;;;;;28.38;15.75;;;9.50;95.70;;;;;;5135068;27;20102;-71
2021/04/30 08:53:13;;;;;;;29.13;16.30;;;9.50;95.60;;;;;;5135067;27;20485;-71
2021/04/30 08:55:39;;;;;;;29.02;17.10;;;9.40;95.80;;;;;;5134492;27;20066;-71
2021/04/30 08:58:08;;;;;;;28.50;16.70;;;9.40;95.80;;;;;;5133454;27;20031;-71
2021/04/30 09:00:33;;;;;;;26.50;15.55;;;9.40;95.80;;;;;;5134865;27;20151;-71
2021/04/30 09:02:59;;;;;;;23.25;13.98;;;9.40;95.70;;;;;;5134573;27;20114;-71
2021/04/30 09:05:27;;;;;;;31.08;16.17;;;9.30;95.90;;;;;;5134499;27;20031;-71
2021/04/30 09:07:55;;;;;;;28.40;16.02;;;9.30;96.10;;;;;;5134523;27;20035;-71
2021/04/30 09:10:22;;;;;;;25.58;15.88;;;9.40;96.20;;;;;;5134411;27;20045;-71
2021/04/30 09:13:10;;;;;;;23.75;15.45;;;9.50;96.20;;;;;;5134876;27;20471;-71
2021/04/30 09:15:39;;;;;;;30.20;15.55;;;9.60;96.20;;;;;;5134491;27;20455;-71
2021/04/30 09:18:25;;;;;;;30.25;15.85;;;9.60;95.90;;;;;;5134830;27;20065;-71
2021/04/30 09:20:52;;;;;;;34.60;17.38;;;9.60;96.00;;;;;;5134774;27;20383;-71
2021/04/30 09:23:46;;;;;;;22.45;14.50;;;9.70;96.00;;;;;;5134464;27;20047;-71
2021/04/30 09:26:29;;;;;;;19.80;13.18;;;9.70;95.00;;;;;;5134011;27;20047;-71
2021/04/30 09:29:10;;;;;;;23.33;14.13;;;9.50;94.00;;;;;;5134953;27;20035;-71
2021/04/30 09:31:41;;;;;;;20.85;14.70;;;9.50;94.70;;;;;;5134374;27;20116;-71
2021/04/30 09:34:26;;;;;;;21.10;13.73;;;9.60;94.90;;;;;;5134077;27;20441;-71
2021/04/30 09:37:12;;;;;;;18.95;13.90;;;9.60;94.50;;;;;;5134037;27;20043;-71
2021/04/30 09:40:07;;;;;;;24.50;14.57;;;9.60;94.10;;;;;;5134139;27;20043;-71
2021/04/30 09:42:36;;;;;;;22.45;13.00;;;9.60;93.80;;;;;;5125517;27;20055;-71
2021/04/30 09:45:06;;;;;;;25.50;13.15;;;9.70;93.60;;;;;;5133869;27;20043;-71
2021/04/30 09:47:34;;;;;;;19.52;12.63;;;9.80;93.80;;;;;;5136957;27;20059;-70
2021/04/30 09:50:03;;;;;;;22.33;12.85;;;9.80;92.60;;;;;;5138220;27;20039;-71
2021/04/30 09:52:29;;;;;;;14.35;11.60;;;9.90;92.60;;;;;;5138138;27;20047;-71
2021/04/30 09:55:05;;;;;;;18.80;13.40;;;9.90;92.70;;;;;;5138282;27;20095;-71
2021/04/30 09:57:32;;;;;;;15.32;11.40;;;10.00;93.10;;;;;;5138603;27;20031;-71
2021/04/30 10:00:11;;;;;;;18.20;10.95;;;10.00;92.90;;;;;;5138567;27;20046;-72
2021/04/30 10:02:37;;;;;;;14.52;11.02;;;10.00;92.10;;;;;;5138131;27;20047;-72
2021/04/30 10:05:18;;;;;;;14.55;10.20;;;10.00;91.70;;;;;;5137775;27;20360;-71
2021/04/30 10:07:44;;;;;;;15.95;10.82;;;10.20;92.10;;;;;;5137753;27;20067;-73
2021/04/30 10:10:24;;;;;;;15.45;10.73;;;10.20;91.70;;;;;;5138335;27;20476;-73
2021/04/30 10:12:55;;;;;;;17.20;10.95;;;10.30;91.90;;;;;;5137783;27;20133;-73
2021/04/30 10:15:21;;;;;;;15.85;10.73;;;10.30;92.10;;;;;;5136651;27;20050;-73
2021/04/30 10:17:58;;;;;;;14.82;10.90;;;10.30;91.00;;;;;;5137587;27;20479;-72
2021/04/30 10:20:24;;;;;;;13.90;10.05;;;10.40;90.10;;;;;;5138051;27;20545;-73
2021/04/30 10:22:50;;;;;;;12.23;9.50;;;10.60;91.00;;;;;;5137587;27;20039;-73
2021/04/30 10:25:19;;;;;;;12.40;8.85;;;10.60;89.70;;;;;;5137215;27;20235;-74
2021/04/30 10:27:55;;;;;;;13.35;9.00;;;10.60;88.80;;;;;;5137641;27;20046;-74
2021/04/30 10:30:32;;;;;;;14.38;8.23;;;10.70;87.50;;;;;;5136893;27;20113;-74
2021/04/30 10:33:34;;;;;;;12.90;8.82;;;10.80;86.30;;;;;;5137471;27;20057;-73
2021/04/30 10:36:05;;;;;;;11.93;10.68;;;11.00;87.00;;;;;;5136994;27;20043;-74
2021/04/30 10:38:33;;;;;;;13.55;11.00;;;11.00;88.90;;;;;;5137654;27;20039;-74
2021/04/30 10:41:10;;;;;;;14.73;10.73;;;11.10;90.00;;;;;;5137420;27;20179;-74
2021/04/30 10:43:37;;;;;;;19.00;11.98;;;11.20;90.30;;;;;;5137661;27;20042;-73
2021/04/30 10:46:13;;;;;;;18.38;10.48;;;11.20;90.50;;;;;;5136929;27;20035;-74
2021/04/30 10:49:05;;;;;;;14.18;9.80;;;11.20;90.20;;;;;;5136049;27;20035;-74
2021/04/30 10:51:36;;;;;;;14.00;10.02;;;11.20;87.10;;;;;;5137350;27;20108;-74
2021/04/30 10:54:27;;;;;;;14.98;10.73;;;11.10;88.10;;;;;;5134542;27;20036;-74
2021/04/30 10:57:00;;;;;;;12.57;9.80;;;10.80;86.30;;;;;;5123665;27;20035;-74
2021/04/30 10:59:46;;;;;;;12.23;10.32;;;10.80;87.70;;;;;;5134701;27;20039;-74
2021/04/30 11:02:31;;;;;;;14.80;10.55;;;10.80;87.00;;;;;;5136803;27;20428;-74
2021/04/30 11:05:06;;;;;;;13.85;10.90;;;10.70;86.90;;;;;;5136450;27;20035;-74
2021/04/30 11:07:57;;;;;;;13.07;10.43;;;10.70;87.10;;;;;;5136587;27;20038;-73
2021/04/30 11:10:27;;;;;;;13.73;11.77;;;10.60;87.10;;;;;;5134639;27;20058;-73
2021/04/30 11:13:18;;;;;;;14.45;10.68;;;10.60;88.90;;;;;;5136611;27;20035;-72
2021/04/30 11:15:47;;;;;;;13.00;11.45;;;10.70;88.90;;;;;;5136591;27;20086;-73
2021/04/30 11:18:19;;;;;;;15.50;11.38;;;10.60;89.60;;;;;;5137077;27;20035;-73
2021/04/30 11:21:02;;;;;;;14.48;10.85;;;10.50;88.80;;;;;;5135117;27;20539;-72
2021/04/30 11:23:36;;;;;;;14.10;12.02;;;10.50;89.50;;;;;;5134316;27;20130;-72
2021/04/30 11:26:09;;;;;;;18.85;11.88;;;10.50;89.50;;;;;;5133785;27;20111;-72
2021/04/30 11:28:41;;;;;;;17.45;12.25;;;10.40;89.00;;;;;;5134308;27;20042;-72
2021/04/30 11:31:29;;;;;;;15.55;12.23;;;10.30;89.10;;;;;;5134207;27;20035;-72
2021/04/30 11:34:12;;;;;;;18.02;12.65;;;10.30;90.00;;;;;;5134876;27;20039;-72
2021/04/30 11:36:39;;;;;;;16.77;13.23;;;10.40;90.60;;;;;;5135532;27;20057;-72
2021/04/30 11:39:33;;;;;;;15.35;12.63;;;10.50;90.90;;;;;;5136489;27;20060;-72
2021/04/30 11:42:02;;;;;;;16.67;12.43;;;10.50;90.50;;;;;;5135159;27;20054;-72
2021/04/30 11:44:28;;;;;;;19.05;15.18;;;10.40;90.70;;;;;;5136241;27;20077;-72
2021/04/30 11:47:01;;;;;;;20.10;13.38;;;10.40;90.40;;;;;;5135786;27;20035;-72
2021/04/30 11:49:28;;;;;;;19.08;14.80;;;10.40;90.40;;;;;;5135993;27;20057;-72
2021/04/30 11:51:54;;;;;;;20.33;13.80;;;10.40;90.40;;;;;;5135848;27;20036;-72
2021/04/30 11:54:26;;;;;;;17.67;14.25;;;10.60;90.60;;;;;;5136010;27;20031;-72
2021/04/30 11:57:18;;;;;;;18.52;14.68;;;10.60;90.10;;;;;;5135991;27;20031;-72
2021/04/30 11:59:45;;;;;;;18.02;13.77;;;10.70;87.50;;;;;;5134221;27;20043;-72
2021/04/30 12:02:11;;;;;;;15.88;13.10;;;10.80;88.90;;;;;;5135809;27;20039;-72
2021/04/30 12:04:40;;;;;;;20.80;14.05;;;10.80;87.90;;;;;;5135576;27;20050;-72
2021/04/30 12:07:07;;;;;;;16.70;13.63;;;11.10;90.30;;;;;;5135502;27;20057;-72
2021/04/30 12:09:33;;;;;;;15.95;13.68;;;11.20;89.30;;;;;;5135892;27;20043;-72
2021/04/30 12:12:18;;;;;;;17.20;14.05;;;11.40;88.80;;;;;;5135628;27;20031;-72
2021/04/30 12:14:48;;;;;;;18.88;14.40;;;11.40;85.60;;;;;;5135293;27;20023;-72
2021/04/30 12:17:23;;;;;;;22.27;14.77;;;11.50;87.40;;;;;;5135247;27;20041;-72
2021/04/30 12:20:01;;;;;;;20.27;15.65;;;11.60;89.20;;;;;;5135900;27;20039;-72
2021/04/30 12:22:28;;;;;;;17.23;13.80;;;11.50;87.60;;;;;;5135741;27;20042;-72
2021/04/30 12:25:14;;;;;;;17.55;14.95;;;11.60;88.00;;;;;;5134729;27;20031;-72
2021/04/30 12:27:40;;;;;;;19.30;14.82;;;11.60;86.30;;;;;;5134951;27;20035;-72
2021/04/30 12:30:07;;;;;;;17.83;13.75;;;11.70;87.00;;;;;;5135643;27;20580;-72
2021/04/30 12:32:32;;;;;;;18.30;14.65;;;11.70;86.70;;;;;;5135562;27;20035;-72
2021/04/30 12:34:59;;;;;;;20.23;13.00;;;11.90;84.90;;;;;;5134589;27;20042;-72
2021/04/30 12:37:25;;;;;;;17.30;13.18;;;12.00;83.10;;;;;;5135047;27;20092;-72
2021/04/30 12:39:51;;;;;;;19.17;13.68;;;12.00;82.60;;;;;;5135325;27;20039;-72
2021/04/30 12:42:17;;;;;;;17.40;12.45;;;12.10;82.40;;;;;;5134837;27;20039;-72